Terminal Aerodrome Forecast
Issued by NWS

Home | Current Version | Previous Version | Graphics & Text | Print | Product List | Glossary On
Versions: 1 2 3 4 5 6 7 8 9 10 11 12 13 14 15 16 17 18 19 20 21
000
FTUS43 KTOP 311600 AAA
TAFMHK
TAF AMD
KMHK 311611Z 3116/0112 19010KT P6SM SCT150
     FM311800 19018G25KT P6SM FEW050
     FM010200 17013G22KT 4SM TSRA BKN050CB
     FM010700 36006KT P6SM SCT150=

USA.gov is the U.S. government's official web portal to all federal, state and local government web resources and services.